Time;durP1;ratioP1;P1;durP2;ratioP2;P2;SDS_P1;SDS_P2;PMS_P1;PMS_P2;Temp;Humidity;BMP_temperature;BMP_pressure;BME280_temperature;BME280_humidity;BME280_pressure;Samples;Min_cycle;Max_cycle;Signal;HPM_P1;HPM_P2
2022/01/21 00:00:59;;;;;;;10.70;7.60;;;;;21.20;102011.00;;;;2078584;28;20272;-47
2022/01/21 00:02:00;;;;;;;12.87;8.03;;;;;21.20;102010.00;;;;2078939;28;20206;-47
2022/01/21 00:03:00;;;;;;;12.40;7.70;;;;;21.20;102018.00;;;;2079323;28;20205;-47
2022/01/21 00:04:00;;;;;;;9.37;7.70;;;;;21.20;102013.00;;;;2079614;28;20236;-47
2022/01/21 00:05:01;;;;;;;10.07;6.60;;;;;21.10;102010.00;;;;2078100;28;20225;-46
2022/01/21 00:06:02;;;;;;;10.27;7.33;;;;;21.10;102004.00;;;;2079210;28;20266;-46
2022/01/21 00:07:02;;;;;;;9.20;6.70;;;;;21.10;102017.00;;;;2079213;28;20635;-46
2022/01/21 00:08:03;;;;;;;10.60;7.30;;;;;21.20;102008.00;;;;2078615;28;20673;-47
2022/01/21 00:09:03;;;;;;;9.43;6.77;;;;;21.20;102010.00;;;;2079143;28;20328;-47
2022/01/21 00:10:04;;;;;;;8.33;6.80;;;;;21.20;102014.00;;;;2079064;28;20397;-47
2022/01/21 00:11:05;;;;;;;8.75;6.57;;;;;21.10;102011.00;;;;2078407;28;20217;-46
2022/01/21 00:12:05;;;;;;;9.87;6.73;;;;;21.10;102019.00;;;;2079069;28;20256;-46
2022/01/21 00:13:15;;;;;;;11.53;6.90;;;;;21.10;102011.00;;;;2079186;28;20712;-46
2022/01/21 00:14:15;;;;;;;9.90;6.32;;;;;21.10;102018.00;;;;2078530;28;20686;-46
2022/01/21 00:15:16;;;;;;;8.97;6.07;;;;;21.10;102029.00;;;;2061418;28;20210;-46
2022/01/21 00:16:20;;;;;;;10.33;6.77;;;;;21.10;102034.00;;;;2070270;28;20269;-46
2022/01/21 00:17:22;;;;;;;9.20;5.90;;;;;21.10;102026.00;;;;2078062;28;20670;-46
2022/01/21 00:18:22;;;;;;;8.65;5.70;;;;;21.10;102024.00;;;;2086139;28;20228;-46
2022/01/21 00:19:25;;;;;;;12.90;7.67;;;;;21.00;102025.00;;;;2084974;28;20718;-46
2022/01/21 00:30:56;;;;;;;8.40;3.90;;;;;20.90;102025.00;;;;2077644;28;20217;-46
2022/01/21 00:31:56;;;;;;;8.13;4.20;;;;;20.90;102039.00;;;;2078736;28;20210;-46
2022/01/21 00:32:56;;;;;;;10.93;4.67;;;;;20.90;102048.00;;;;2078071;28;20287;-46
2022/01/21 00:33:57;;;;;;;9.83;4.53;;;;;20.90;102036.00;;;;2078860;28;20220;-46
2022/01/21 00:34:57;;;;;;;7.90;4.37;;;;;20.90;102042.00;;;;2078596;28;20221;-46
2022/01/21 00:35:59;;;;;;;6.37;4.23;;;;;20.90;102048.00;;;;2072666;28;20309;-46
2022/01/21 00:36:59;;;;;;;7.47;4.13;;;;;20.90;102040.00;;;;2078988;28;20241;-46
2022/01/21 00:37:59;;;;;;;9.57;4.40;;;;;20.90;102038.00;;;;2078222;28;20861;-47
2022/01/21 00:39:00;;;;;;;10.80;4.63;;;;;20.90;102034.00;;;;2079176;28;20223;-46
2022/01/21 00:40:02;;;;;;;9.03;4.57;;;;;20.80;102033.00;;;;2078864;28;20217;-46
2022/01/21 00:41:05;;;;;;;6.70;3.85;;;;;20.80;102038.00;;;;2074433;28;20212;-46
2022/01/21 00:43:18;;;;;;;5.32;3.55;;;;;20.80;102048.00;;;;2078038;28;20304;-46
2022/01/21 00:44:19;;;;;;;8.10;4.00;;;;;20.80;102047.00;;;;2078821;28;20217;-46
2022/01/21 00:45:20;;;;;;;8.37;3.90;;;;;20.90;102052.00;;;;2074249;28;20217;-46
2022/01/21 00:46:21;;;;;;;6.82;3.90;;;;;20.80;102045.00;;;;2078894;28;20237;-46
2022/01/21 00:47:22;;;;;;;9.30;3.55;;;;;20.80;102044.00;;;;2078956;28;20209;-47
2022/01/21 00:48:22;;;;;;;6.77;3.60;;;;;20.80;102043.00;;;;2078889;28;20870;-47
2022/01/21 00:49:23;;;;;;;7.27;3.97;;;;;20.80;102046.00;;;;2078625;28;20264;-46
2022/01/21 00:50:23;;;;;;;6.00;3.77;;;;;20.80;102043.00;;;;2075675;28;20210;-46
2022/01/21 00:51:23;;;;;;;8.07;4.37;;;;;20.80;102046.00;;;;2078615;28;20292;-46
2022/01/21 00:52:24;;;;;;;6.57;3.20;;;;;20.80;102038.00;;;;2078926;28;20324;-46
2022/01/21 00:53:24;;;;;;;8.00;3.93;;;;;20.80;102028.00;;;;2085840;28;20208;-46
2022/01/21 00:54:24;;;;;;;6.70;3.50;;;;;20.80;102035.00;;;;2086220;28;20245;-46
2022/01/21 00:55:25;;;;;;;6.50;3.40;;;;;20.80;102023.00;;;;2074404;28;20276;-46
2022/01/21 00:56:25;;;;;;;4.83;2.93;;;;;20.80;102025.00;;;;2078793;28;20217;-47
2022/01/21 00:57:25;;;;;;;7.00;3.73;;;;;20.70;102024.00;;;;2078163;28;20217;-46
2022/01/21 00:58:26;;;;;;;6.17;3.13;;;;;20.70;102032.00;;;;2078712;28;20237;-47
2022/01/21 00:59:26;;;;;;;7.00;3.10;;;;;20.70;102029.00;;;;2078418;28;20210;-46
2022/01/21 01:00:27;;;;;;;6.53;3.40;;;;;20.70;102027.00;;;;2077575;28;20267;-46
2022/01/21 01:01:27;;;;;;;6.33;3.17;;;;;20.70;102030.00;;;;2078421;28;20686;-46
2022/01/21 01:02:29;;;;;;;8.23;3.10;;;;;20.70;102031.00;;;;2078068;28;20237;-46
2022/01/21 01:03:29;;;;;;;6.47;3.50;;;;;20.70;102023.00;;;;2079297;28;20216;-47
2022/01/21 01:04:30;;;;;;;5.80;3.27;;;;;20.70;102030.00;;;;2079109;28;20328;-48
2022/01/21 01:05:30;;;;;;;7.07;3.30;;;;;20.70;102026.00;;;;2079172;28;20229;-47
2022/01/21 01:06:30;;;;;;;6.27;3.17;;;;;20.70;102028.00;;;;2079190;28;20213;-47
2022/01/21 01:07:31;;;;;;;4.37;2.70;;;;;20.70;102026.00;;;;2078573;28;20228;-47
2022/01/21 01:08:31;;;;;;;5.10;3.23;;;;;20.70;102023.00;;;;2079145;28;20213;-47
2022/01/21 01:09:33;;;;;;;4.07;2.80;;;;;20.70;102028.00;;;;2079019;28;20213;-47
2022/01/21 01:19:52;;;;;;;5.17;2.70;;;;;20.60;102032.00;;;;2078524;28;20218;-46
2022/01/21 01:20:55;;;;;;;6.18;2.75;;;;;20.60;102027.00;;;;2074029;28;20225;-46
2022/01/21 01:21:56;;;;;;;4.37;2.50;;;;;20.60;102035.00;;;;2078591;28;20209;-47
2022/01/21 01:23:08;;;;;;;6.60;2.80;;;;;20.70;102033.00;;;;2078622;28;20213;-47
2022/01/21 01:27:47;;;;;;;6.20;3.35;;;;;20.70;102037.00;;;;2059800;28;20222;-47
2022/01/21 01:28:48;;;;;;;6.70;2.50;;;;;20.70;102042.00;;;;2068778;28;20575;-48
2022/01/21 01:29:48;;;;;;;6.80;2.73;;;;;20.70;102042.00;;;;2069752;28;20202;-48
2022/01/21 01:30:48;;;;;;;5.30;2.67;;;;;20.70;102040.00;;;;2066251;28;20238;-47
2022/01/21 01:31:49;;;;;;;5.20;2.23;;;;;20.70;102041.00;;;;2078468;28;20560;-47
2022/01/21 01:32:49;;;;;;;5.70;2.90;;;;;20.70;102039.00;;;;2077842;28;20647;-47
2022/01/21 01:33:50;;;;;;;5.13;2.70;;;;;20.70;102039.00;;;;2086314;28;20311;-48
2022/01/21 01:34:51;;;;;;;5.00;2.43;;;;;20.70;102043.00;;;;2085798;28;20237;-47
2022/01/21 01:35:51;;;;;;;4.50;2.30;;;;;20.70;102034.00;;;;2072279;28;20222;-49
2022/01/21 01:36:57;;;;;;;4.23;2.63;;;;;20.70;102025.00;;;;2078495;28;20460;-47
2022/01/21 01:38:20;;;;;;;6.38;2.50;;;;;20.70;102034.00;;;;2077858;28;20274;-47
2022/01/21 01:39:41;;;;;;;5.15;2.50;;;;;20.70;102038.00;;;;2078466;28;20735;-47
2022/01/21 01:40:55;;;;;;;5.00;2.50;;;;;20.70;102040.00;;;;2077457;28;20697;-47
2022/01/21 01:42:46;;;;;;;3.88;2.10;;;;;20.70;102034.00;;;;2078245;28;20693;-47
2022/01/21 01:49:44;;;;;;;5.53;2.50;;;;;20.70;102040.00;;;;2068157;28;20210;-47
2022/01/21 01:50:45;;;;;;;3.60;2.80;;;;;20.70;102049.00;;;;2064550;28;20286;-47
2022/01/21 01:51:46;;;;;;;4.80;2.07;;;;;20.70;102044.00;;;;2085023;28;20243;-46
2022/01/21 01:52:46;;;;;;;6.13;2.50;;;;;20.70;102040.00;;;;2086476;28;20217;-47
2022/01/21 01:54:08;;;;;;;4.77;2.27;;;;;20.70;102044.00;;;;2078494;28;20301;-47
2022/01/21 01:55:09;;;;;;;5.47;2.60;;;;;20.70;102045.00;;;;2080563;28;20215;-47
2022/01/21 01:56:11;;;;;;;6.50;2.37;;;;;20.70;102042.00;;;;2080309;28;20219;-47
2022/01/21 01:57:12;;;;;;;3.88;2.13;;;;;20.70;102040.00;;;;2069832;28;20221;-47
2022/01/21 01:58:14;;;;;;;5.57;2.77;;;;;20.70;102044.00;;;;2069867;28;20676;-47
2022/01/21 01:59:14;;;;;;;4.40;2.03;;;;;20.70;102031.00;;;;2078434;28;20360;-47
2022/01/21 02:00:15;;;;;;;4.03;2.07;;;;;20.60;102039.00;;;;2077816;28;20300;-47
2022/01/21 02:01:16;;;;;;;9.20;2.43;;;;;20.70;102033.00;;;;2075381;28;20685;-47
2022/01/21 02:02:17;;;;;;;4.27;2.37;;;;;20.70;102037.00;;;;2078480;28;20456;-47
2022/01/21 02:03:17;;;;;;;6.68;2.03;;;;;20.70;102029.00;;;;2078741;28;20221;-47
2022/01/21 02:04:18;;;;;;;3.90;2.03;;;;;20.70;101940.00;;;;2078534;28;20221;-47
2022/01/21 02:05:18;;;;;;;7.10;2.40;;;;;20.70;102032.00;;;;2069882;28;20222;-47
2022/01/21 02:06:19;;;;;;;6.40;2.53;;;;;20.60;102035.00;;;;2068450;28;20214;-47
2022/01/21 02:07:20;;;;;;;5.65;2.00;;;;;20.60;102030.00;;;;2078785;28;20670;-47
2022/01/21 02:08:20;;;;;;;4.50;2.20;;;;;20.60;102026.00;;;;2076271;28;20205;-47
2022/01/21 02:09:20;;;;;;;5.90;2.10;;;;;20.60;102036.00;;;;2085680;28;20224;-47
2022/01/21 02:10:21;;;;;;;6.80;2.50;;;;;20.60;102030.00;;;;2078249;28;20224;-47
2022/01/21 02:11:21;;;;;;;8.40;2.67;;;;;20.60;102022.00;;;;2085375;28;20256;-47
2022/01/21 02:12:21;;;;;;;4.50;2.30;;;;;20.50;102022.00;;;;2086615;28;20300;-47
2022/01/21 02:13:26;;;;;;;5.63;2.53;;;;;20.50;102016.00;;;;2078652;28;20209;-47
2022/01/21 02:14:34;;;;;;;6.15;2.40;;;;;20.60;102009.00;;;;2078375;28;20213;-47
2022/01/21 02:15:35;;;;;;;6.70;1.98;;;;;20.60;102016.00;;;;2078769;28;20216;-47
2022/01/21 02:21:28;;;;;;;5.75;2.08;;;;;20.60;102025.00;;;;2078349;28;20700;-47
2022/01/21 02:22:00;;;;;;;7.53;2.28;;;;;20.50;102030.00;;;;2086524;28;20216;-47
2022/01/21 02:23:00;;;;;;;5.67;2.23;;;;;20.50;102026.00;;;;2084143;28;20236;-47
2022/01/21 02:24:04;;;;;;;4.80;2.23;;;;;20.50;102025.00;;;;2078660;28;20214;-48
2022/01/21 02:25:16;;;;;;;4.10;1.95;;;;;20.50;102038.00;;;;2078878;28;20355;-47
2022/01/21 02:26:16;;;;;;;7.68;2.67;;;;;20.50;102040.00;;;;2076763;28;20224;-47
2022/01/21 02:27:16;;;;;;;4.73;2.37;;;;;20.50;102049.00;;;;2078606;28;20301;-47
2022/01/21 02:28:18;;;;;;;4.33;2.00;;;;;20.50;102047.00;;;;2079052;28;20224;-48
2022/01/21 02:29:28;;;;;;;4.35;1.80;;;;;20.50;102043.00;;;;2078556;28;20267;-47
2022/01/21 02:30:28;;;;;;;5.00;2.10;;;;;20.50;102037.00;;;;2074652;28;20209;-49
2022/01/21 02:31:29;;;;;;;4.13;2.00;;;;;20.50;102040.00;;;;2085940;28;20560;-47
2022/01/21 02:32:29;;;;;;;4.70;2.30;;;;;20.40;102038.00;;;;2078190;28;20219;-46
2022/01/21 02:33:29;;;;;;;5.87;2.33;;;;;20.40;102041.00;;;;2069901;28;20210;-45
2022/01/21 02:34:31;;;;;;;4.47;2.23;;;;;20.40;102032.00;;;;2078564;28;20228;-47
2022/01/21 02:35:32;;;;;;;6.80;2.40;;;;;20.40;102044.00;;;;2078429;28;20248;-47
2022/01/21 02:36:32;;;;;;;5.20;2.23;;;;;20.40;102046.00;;;;2078015;28;20589;-47
2022/01/21 02:37:33;;;;;;;5.23;2.13;;;;;20.40;102037.00;;;;2078885;28;20225;-48
2022/01/21 02:38:33;;;;;;;6.93;2.20;;;;;20.40;102043.00;;;;2078432;28;20224;-47
2022/01/21 02:39:33;;;;;;;6.60;2.60;;;;;20.40;102043.00;;;;2078235;28;20224;-47
2022/01/21 02:40:34;;;;;;;4.17;1.93;;;;;20.40;102045.00;;;;2075167;28;20213;-47
2022/01/21 02:41:34;;;;;;;5.40;2.40;;;;;20.40;102043.00;;;;2077484;28;20220;-47
2022/01/21 02:42:35;;;;;;;4.47;2.30;;;;;20.40;102048.00;;;;2078618;28;20567;-47
2022/01/21 02:43:35;;;;;;;4.50;2.13;;;;;20.40;102054.00;;;;2079019;28;20214;-47
2022/01/21 02:44:36;;;;;;;4.17;1.97;;;;;20.40;102058.00;;;;2077941;28;20220;-47
2022/01/21 02:45:37;;;;;;;4.23;2.10;;;;;20.40;102045.00;;;;2075810;28;20214;-47
2022/01/21 02:46:40;;;;;;;4.82;2.05;;;;;20.40;102058.00;;;;2077245;28;20258;-47
2022/01/21 02:47:45;;;;;;;4.32;2.03;;;;;20.40;102052.00;;;;2078659;28;20213;-47
2022/01/21 02:48:45;;;;;;;4.15;2.35;;;;;20.40;102060.00;;;;2085875;28;20269;-47
2022/01/21 02:49:45;;;;;;;4.57;2.10;;;;;20.40;102053.00;;;;2085728;28;20688;-47
2022/01/21 02:50:46;;;;;;;4.53;2.00;;;;;20.40;102061.00;;;;2077749;28;20308;-47
2022/01/21 02:51:46;;;;;;;5.43;2.67;;;;;20.40;102058.00;;;;2078364;28;20263;-47
2022/01/21 02:52:56;;;;;;;5.43;2.20;;;;;20.30;102062.00;;;;2077315;28;20728;-47
2022/01/21 02:54:57;;;;;;;6.90;2.37;;;;;20.40;102052.00;;;;2078363;28;20213;-47
2022/01/21 02:55:57;;;;;;;3.93;2.00;;;;;20.40;102057.00;;;;2078160;28;20240;-47
2022/01/21 02:56:58;;;;;;;4.97;2.03;;;;;20.40;102065.00;;;;2077923;28;20215;-47
2022/01/21 02:57:58;;;;;;;5.70;2.30;;;;;20.30;102071.00;;;;2077892;28;20221;-47
2022/01/21 02:58:58;;;;;;;6.10;1.90;;;;;20.30;102066.00;;;;2078708;28;20220;-47
2022/01/21 02:59:59;;;;;;;4.90;1.90;;;;;20.30;102069.00;;;;2078829;28;20231;-47
2022/01/21 03:00:59;;;;;;;4.30;2.00;;;;;20.30;102063.00;;;;2077396;28;20295;-47
2022/01/21 03:02:00;;;;;;;4.27;2.30;;;;;20.30;102054.00;;;;2078884;28;20239;-47
2022/01/21 03:03:04;;;;;;;5.07;2.30;;;;;20.30;102063.00;;;;2078393;28;20236;-47
2022/01/21 03:04:05;;;;;;;5.72;2.05;;;;;20.30;102061.00;;;;2078488;28;20213;-48
2022/01/21 03:05:12;;;;;;;5.78;2.30;;;;;20.30;102059.00;;;;2086103;28;20241;-48
2022/01/21 03:06:16;;;;;;;4.88;2.20;;;;;20.30;102064.00;;;;2085764;28;20228;-47
2022/01/21 03:07:17;;;;;;;6.35;2.08;;;;;20.00;102064.00;;;;2078437;28;20202;-47
2022/01/21 03:08:17;;;;;;;3.73;2.10;;;;;20.20;102055.00;;;;2078193;28;20215;-47
2022/01/21 03:09:18;;;;;;;5.33;2.10;;;;;20.30;102061.00;;;;2069856;28;20878;-47
2022/01/21 03:10:19;;;;;;;3.93;1.60;;;;;20.30;102062.00;;;;2068626;28;20848;-47
2022/01/21 03:11:21;;;;;;;5.30;2.30;;;;;20.30;102067.00;;;;2078309;28;20233;-47
2022/01/21 03:12:21;;;;;;;4.38;2.00;;;;;20.30;102066.00;;;;2076921;28;20567;-47
2022/01/21 03:13:22;;;;;;;4.23;1.80;;;;;20.30;102059.00;;;;2078541;28;20216;-47
2022/01/21 03:14:22;;;;;;;2.40;1.30;;;;;20.30;102056.00;;;;2078356;28;20296;-47
2022/01/21 03:15:23;;;;;;;5.60;1.90;;;;;20.20;102064.00;;;;2078745;28;20241;-48
2022/01/21 03:16:23;;;;;;;4.90;2.30;;;;;20.20;102055.00;;;;2076098;28;20225;-47
2022/01/21 03:17:24;;;;;;;6.27;2.33;;;;;20.20;102064.00;;;;2078356;28;20218;-47
2022/01/21 03:18:24;;;;;;;4.20;1.97;;;;;20.20;102052.00;;;;2078637;28;20945;-47
2022/01/21 03:19:24;;;;;;;5.30;1.80;;;;;20.30;102056.00;;;;2078673;28;20245;-47
2022/01/21 03:20:25;;;;;;;4.53;2.40;;;;;20.20;102054.00;;;;2077923;28;20314;-47
2022/01/21 03:21:25;;;;;;;5.50;2.20;;;;;20.20;102061.00;;;;2075930;28;20221;-47
2022/01/21 03:22:25;;;;;;;4.30;1.70;;;;;20.20;102056.00;;;;2078621;28;20225;-47
2022/01/21 03:23:28;;;;;;;4.20;1.77;;;;;20.20;102059.00;;;;2078841;28;20233;-47
2022/01/21 03:24:28;;;;;;;4.22;1.80;;;;;20.20;102054.00;;;;2080049;28;20217;-47
2022/01/21 03:25:28;;;;;;;4.50;1.47;;;;;20.20;102048.00;;;;2080068;28;20301;-47
2022/01/21 03:26:29;;;;;;;4.77;2.17;;;;;20.20;102047.00;;;;2075993;28;20293;-47
2022/01/21 03:27:30;;;;;;;2.97;1.50;;;;;20.20;102044.00;;;;2087245;28;20486;-47
2022/01/21 03:28:30;;;;;;;5.73;1.60;;;;;20.20;102042.00;;;;2087718;28;20213;-47
2022/01/21 03:29:31;;;;;;;9.13;2.30;;;;;20.20;102033.00;;;;2079612;28;20218;-47
2022/01/21 03:30:31;;;;;;;4.90;1.83;;;;;20.20;102034.00;;;;2078424;28;20213;-47
2022/01/21 03:31:33;;;;;;;3.43;1.30;;;;;20.20;102038.00;;;;2073944;28;20245;-48
2022/01/21 03:32:33;;;;;;;4.90;2.17;;;;;20.20;102046.00;;;;2079724;28;20217;-47
2022/01/21 03:33:34;;;;;;;4.53;2.10;;;;;20.20;102043.00;;;;2079952;28;20221;-46
2022/01/21 03:34:34;;;;;;;5.43;2.07;;;;;20.20;102049.00;;;;2079342;28;20217;-47
2022/01/21 03:35:35;;;;;;;5.20;2.13;;;;;20.20;102054.00;;;;2080167;28;20221;-47
2022/01/21 03:36:36;;;;;;;6.00;2.10;;;;;20.20;102049.00;;;;2076940;28;20804;-47
2022/01/21 03:37:36;;;;;;;4.75;1.75;;;;;20.20;102060.00;;;;2079306;28;20581;-47
2022/01/21 03:38:37;;;;;;;4.80;1.87;;;;;20.20;102060.00;;;;2079628;28;20221;-47
2022/01/21 03:39:37;;;;;;;9.10;2.50;;;;;20.10;102060.00;;;;2079267;28;20589;-47
2022/01/21 03:40:37;;;;;;;4.73;1.90;;;;;20.10;102061.00;;;;2078432;28;20228;-47
2022/01/21 03:41:39;;;;;;;5.77;1.97;;;;;20.10;102061.00;;;;2078526;28;20225;-47
2022/01/21 03:42:39;;;;;;;5.00;1.85;;;;;20.20;102065.00;;;;2079922;28;20633;-47
2022/01/21 03:43:39;;;;;;;3.47;1.73;;;;;20.10;102068.00;;;;2079999;28;20225;-47
2022/01/21 03:44:40;;;;;;;3.87;1.87;;;;;20.10;102060.00;;;;2079228;28;20587;-52
2022/01/21 03:45:40;;;;;;;5.50;1.60;;;;;20.10;102061.00;;;;2079386;28;20283;-48
2022/01/21 03:46:41;;;;;;;6.10;2.10;;;;;20.10;102058.00;;;;2079190;28;20309;-49
2022/01/21 03:47:42;;;;;;;3.83;1.70;;;;;20.10;102052.00;;;;2079951;28;20221;-48
2022/01/21 03:48:47;;;;;;;7.78;2.47;;;;;20.10;102049.00;;;;2079828;28;20221;-47
2022/01/21 03:49:56;;;;;;;3.92;1.70;;;;;20.10;102067.00;;;;2079838;28;20233;-47
2022/01/21 03:50:56;;;;;;;3.35;1.50;;;;;20.10;102058.00;;;;2076309;28;20262;-47
2022/01/21 03:51:57;;;;;;;3.73;1.90;;;;;20.10;102059.00;;;;2079762;28;20632;-46
2022/01/21 03:53:00;;;;;;;2.90;1.40;;;;;20.10;102056.00;;;;2079573;28;20224;-47
2022/01/21 03:54:00;;;;;;;5.22;2.30;;;;;20.10;102061.00;;;;2079725;28;20210;-47
2022/01/21 03:55:01;;;;;;;4.90;1.87;;;;;20.10;102069.00;;;;2079566;28;20724;-47
2022/01/21 03:56:01;;;;;;;4.20;2.13;;;;;20.10;102064.00;;;;2079796;28;26151;-47
2022/01/21 03:57:03;;;;;;;4.50;1.93;;;;;20.10;102061.00;;;;2079579;28;20589;-47
2022/01/21 03:58:04;;;;;;;4.90;2.10;;;;;20.10;102064.00;;;;2087176;28;20227;-47
2022/01/21 03:59:04;;;;;;;3.83;1.85;;;;;20.00;102064.00;;;;2087199;28;20224;-47
2022/01/21 04:00:06;;;;;;;4.50;2.10;;;;;20.00;102062.00;;;;2087037;28;20283;-47
2022/01/21 04:01:07;;;;;;;4.30;1.83;;;;;20.10;102067.00;;;;2083919;28;20256;-47
2022/01/21 04:02:07;;;;;;;3.70;1.70;;;;;20.10;102060.00;;;;2079925;28;20229;-47
2022/01/21 04:03:08;;;;;;;4.30;1.70;;;;;20.10;102059.00;;;;2079738;28;20245;-47
2022/01/21 04:04:08;;;;;;;4.20;1.90;;;;;20.10;102060.00;;;;2079762;28;20218;-47
2022/01/21 04:05:09;;;;;;;4.83;2.00;;;;;20.10;102059.00;;;;2079521;28;20251;-47
2022/01/21 04:06:09;;;;;;;4.30;1.80;;;;;20.10;102055.00;;;;2079480;28;20229;-47
2022/01/21 04:07:09;;;;;;;5.03;2.20;;;;;20.00;102068.00;;;;2079077;28;20632;-46
2022/01/21 04:08:10;;;;;;;3.70;2.10;;;;;20.00;102073.00;;;;2079677;28;20213;-47
2022/01/21 04:09:11;;;;;;;4.90;2.13;;;;;20.00;102072.00;;;;2079712;28;20222;-48
2022/01/21 04:10:12;;;;;;;5.45;1.85;;;;;20.10;102087.00;;;;2079265;28;20453;-47
2022/01/21 04:11:12;;;;;;;3.43;1.67;;;;;20.00;102072.00;;;;2078946;28;20275;-47
2022/01/21 04:12:12;;;;;;;3.40;1.83;;;;;20.00;102076.00;;;;2077432;28;20213;-47
2022/01/21 04:13:17;;;;;;;4.60;1.90;;;;;20.00;102076.00;;;;2087258;28;20224;-47
2022/01/21 04:14:18;;;;;;;4.88;1.60;;;;;20.00;102074.00;;;;2078690;28;20284;-47
2022/01/21 04:15:18;;;;;;;4.00;1.83;;;;;20.00;102066.00;;;;2079754;28;20217;-47
2022/01/21 04:16:19;;;;;;;4.23;1.83;;;;;20.00;102067.00;;;;2079620;28;20217;-47
2022/01/21 04:17:19;;;;;;;5.00;2.10;;;;;20.00;102082.00;;;;2079228;28;20608;-47
2022/01/21 04:18:19;;;;;;;3.90;1.83;;;;;20.00;102072.00;;;;2079699;28;20233;-47
2022/01/21 04:19:20;;;;;;;6.53;2.10;;;;;20.00;102084.00;;;;2079516;28;20220;-47
2022/01/21 04:20:20;;;;;;;3.37;1.77;;;;;20.00;102086.00;;;;2078922;28;20209;-47
2022/01/21 04:21:21;;;;;;;3.40;1.53;;;;;20.00;102079.00;;;;2079289;28;20637;-47
2022/01/21 04:22:21;;;;;;;6.63;2.13;;;;;20.00;102073.00;;;;2079461;28;20617;-47
2022/01/21 04:23:22;;;;;;;5.17;1.90;;;;;20.00;102062.00;;;;2079248;28;20245;-47
2022/01/21 04:24:22;;;;;;;4.23;1.73;;;;;20.00;102073.00;;;;2079384;28;20216;-47
2022/01/21 04:25:23;;;;;;;3.90;1.93;;;;;20.00;102069.00;;;;2079278;28;20214;-47
2022/01/21 04:26:23;;;;;;;3.33;1.50;;;;;20.00;102018.00;;;;2079189;28;20224;-47
2022/01/21 04:27:23;;;;;;;3.07;1.50;;;;;20.00;102081.00;;;;2078159;28;20645;-47
2022/01/21 04:28:24;;;;;;;4.67;1.70;;;;;20.00;102077.00;;;;2079091;28;20574;-47
2022/01/21 04:29:24;;;;;;;5.23;2.00;;;;;20.00;102065.00;;;;2079260;28;20761;-47
2022/01/21 04:30:25;;;;;;;5.20;1.77;;;;;20.00;102062.00;;;;2070638;28;20209;-47
2022/01/21 04:31:25;;;;;;;5.40;1.57;;;;;20.00;102056.00;;;;2078886;28;20209;-47
2022/01/21 04:32:25;;;;;;;6.07;1.70;;;;;20.00;102052.00;;;;2079599;28;20612;-47
2022/01/21 04:33:26;;;;;;;4.90;2.03;;;;;20.00;102057.00;;;;2078765;28;20640;-47
2022/01/21 04:34:26;;;;;;;4.80;1.80;;;;;19.90;102063.00;;;;2079078;28;20297;-47
2022/01/21 04:35:27;;;;;;;5.17;2.20;;;;;19.90;102057.00;;;;2079276;28;20275;-47
2022/01/21 04:36:27;;;;;;;3.37;1.43;;;;;19.90;102059.00;;;;2079665;28;20582;-46
2022/01/21 04:37:28;;;;;;;3.43;1.30;;;;;19.90;102052.00;;;;2079113;28;20208;-47
2022/01/21 04:38:29;;;;;;;4.53;1.97;;;;;19.90;102054.00;;;;2079235;28;20201;-47
2022/01/21 04:39:35;;;;;;;3.53;1.60;;;;;19.90;102045.00;;;;2078643;28;20482;-47
2022/01/21 04:40:44;;;;;;;4.13;1.90;;;;;19.90;102057.00;;;;2078161;28;20221;-47
2022/01/21 04:47:17;;;;;;;4.35;1.98;;;;;19.90;102052.00;;;;2079390;28;20213;-47
2022/01/21 04:48:13;;;;;;;3.28;1.50;;;;;19.90;102056.00;;;;2079150;28;20218;-47
2022/01/21 04:49:13;;;;;;;4.80;1.83;;;;;19.90;102057.00;;;;2078811;28;21021;-47
2022/01/21 04:50:14;;;;;;;3.50;1.77;;;;;19.90;102062.00;;;;2079148;28;20214;-47
2022/01/21 04:51:18;;;;;;;4.43;1.65;;;;;19.90;102064.00;;;;2077451;28;20213;-47
2022/01/21 04:52:19;;;;;;;4.30;1.83;;;;;19.90;102067.00;;;;2078780;28;20296;-47
2022/01/21 04:53:20;;;;;;;7.53;1.65;;;;;19.90;102061.00;;;;2077871;28;20304;-47
2022/01/21 04:54:20;;;;;;;4.55;1.95;;;;;19.90;102061.00;;;;2078434;28;20216;-48
2022/01/21 04:55:21;;;;;;;3.50;1.60;;;;;19.90;102063.00;;;;2078398;28;20641;-49
2022/01/21 04:56:21;;;;;;;4.33;1.80;;;;;19.90;102060.00;;;;2070024;28;20704;-48
2022/01/21 04:57:22;;;;;;;4.50;1.87;;;;;19.90;102057.00;;;;2070410;28;20214;-48
2022/01/21 04:58:22;;;;;;;4.43;1.60;;;;;19.90;102056.00;;;;2078516;28;20217;-47
2022/01/21 04:59:23;;;;;;;4.70;1.73;;;;;19.90;102051.00;;;;2078900;28;20221;-47
2022/01/21 05:00:24;;;;;;;3.87;1.70;;;;;19.90;102054.00;;;;2077564;28;20704;-46
2022/01/21 05:01:24;;;;;;;5.00;1.83;;;;;19.90;102062.00;;;;2078751;28;20487;-47
2022/01/21 05:02:26;;;;;;;4.40;1.53;;;;;19.90;102067.00;;;;2078913;28;20209;-47
2022/01/21 05:03:26;;;;;;;6.05;1.80;;;;;19.90;102062.00;;;;2078844;28;20221;-47
2022/01/21 05:04:27;;;;;;;3.53;1.60;;;;;19.90;102059.00;;;;2078700;28;20573;-47
2022/01/21 05:05:27;;;;;;;5.17;2.20;;;;;19.80;102063.00;;;;2079175;28;20590;-47
2022/01/21 05:06:28;;;;;;;5.27;2.10;;;;;19.80;102064.00;;;;2077708;28;20214;-47
2022/01/21 05:07:30;;;;;;;3.63;1.70;;;;;19.90;102060.00;;;;2078776;28;20271;-47
2022/01/21 05:08:40;;;;;;;3.67;1.85;;;;;19.80;102067.00;;;;2078769;28;20693;-47
2022/01/21 05:09:40;;;;;;;3.20;1.80;;;;;19.80;102060.00;;;;2078393;28;20213;-47
2022/01/21 05:10:41;;;;;;;4.00;1.70;;;;;19.80;102067.00;;;;2077694;28;20403;-47
2022/01/21 05:11:41;;;;;;;3.47;1.73;;;;;19.80;102071.00;;;;2078844;28;20869;-47
2022/01/21 05:12:42;;;;;;;5.63;1.97;;;;;19.90;102067.00;;;;2078691;28;20217;-47
2022/01/21 05:13:50;;;;;;;4.70;2.30;;;;;19.80;102056.00;;;;2078537;28;20468;-47
2022/01/21 05:16:07;;;;;;;3.30;1.92;;;;;19.80;102061.00;;;;2077983;28;20209;-47
2022/01/21 05:17:10;;;;;;;6.45;2.00;;;;;19.80;102059.00;;;;2079265;28;20241;-46
2022/01/21 05:18:10;;;;;;;4.93;2.00;;;;;19.80;102057.00;;;;2078341;28;20220;-47
2022/01/21 05:19:17;;;;;;;4.87;1.93;;;;;19.80;102067.00;;;;2078950;28;20233;-47
2022/01/21 05:20:18;;;;;;;4.50;2.05;;;;;19.80;102069.00;;;;2078378;28;20222;-47
2022/01/21 05:21:18;;;;;;;3.63;1.80;;;;;19.80;102066.00;;;;2078307;28;20689;-47
2022/01/21 05:22:18;;;;;;;3.70;1.73;;;;;19.80;102064.00;;;;2078522;28;20626;-47
2022/01/21 05:23:19;;;;;;;4.20;1.70;;;;;19.80;102063.00;;;;2078553;28;20249;-47
2022/01/21 05:24:20;;;;;;;4.13;1.90;;;;;19.80;102062.00;;;;2078679;28;20209;-47
2022/01/21 05:25:21;;;;;;;4.20;1.77;;;;;19.80;102062.00;;;;2078341;28;20229;-47
2022/01/21 05:26:21;;;;;;;3.80;1.50;;;;;19.80;102066.00;;;;2078440;28;20219;-47
2022/01/21 05:27:22;;;;;;;4.97;1.67;;;;;19.70;102064.00;;;;2078666;28;20224;-46
2022/01/21 05:28:22;;;;;;;5.10;1.70;;;;;19.80;102063.00;;;;2078599;28;20237;-47
2022/01/21 05:29:28;;;;;;;3.77;1.67;;;;;19.70;102070.00;;;;2078645;28;20812;-47
2022/01/21 05:30:28;;;;;;;3.33;1.52;;;;;19.80;102070.00;;;;2077704;28;20217;-47
2022/01/21 05:31:28;;;;;;;4.57;1.67;;;;;19.70;102071.00;;;;2078644;28;20221;-48
2022/01/21 05:32:29;;;;;;;4.33;1.70;;;;;19.80;102071.00;;;;2078412;28;20233;-47
2022/01/21 05:33:29;;;;;;;4.10;1.73;;;;;19.80;102064.00;;;;2078696;28;20282;-47
2022/01/21 05:34:30;;;;;;;3.37;1.57;;;;;19.80;102069.00;;;;2078539;28;20689;-47
2022/01/21 05:35:30;;;;;;;4.33;1.63;;;;;19.70;102065.00;;;;2078937;28;20209;-47
2022/01/21 05:36:31;;;;;;;3.30;1.30;;;;;19.70;102071.00;;;;2078888;28;20221;-47
2022/01/21 05:37:32;;;;;;;2.97;1.50;;;;;19.70;102071.00;;;;2079006;28;20988;-47
2022/01/21 05:38:32;;;;;;;5.77;2.20;;;;;19.70;102067.00;;;;2078991;28;20984;-47
2022/01/21 05:39:32;;;;;;;4.50;1.63;;;;;19.70;102069.00;;;;2078993;28;20577;-47
2022/01/21 05:40:33;;;;;;;4.30;1.77;;;;;19.80;102066.00;;;;2077324;28;21059;-47
2022/01/21 05:41:33;;;;;;;5.50;1.77;;;;;19.70;102070.00;;;;2078564;28;20220;-47
2022/01/21 05:42:35;;;;;;;4.03;1.87;;;;;19.70;102068.00;;;;2078893;28;20589;-46
2022/01/21 05:43:37;;;;;;;4.50;1.92;;;;;19.70;102077.00;;;;2078458;28;20225;-47
2022/01/21 05:46:59;;;;;;;4.22;1.77;;;;;19.70;102075.00;;;;2078196;28;20217;-51
2022/01/21 05:47:59;;;;;;;3.10;1.67;;;;;19.70;102074.00;;;;2070090;28;20209;-47
2022/01/21 05:49:00;;;;;;;3.47;1.40;;;;;19.70;102075.00;;;;2070470;28;20210;-47
2022/01/21 05:50:00;;;;;;;4.40;1.67;;;;;19.70;102081.00;;;;2078712;28;20237;-47